Деболовское

Карта отелей и гостиниц, располагающихся рядом с аэропортом Деболовское :

Деболовское Ярославская область 57° 5' 3.0012" N, 39° 17' 12.9012" E
Деболовское Ярославская область 57° 5' 3.0012" N, 39° 17' 12.9012" E
Код аэродрома ИКАО
ZF2D
Код аэродрома RU
ЗФ2Д
Координаты
N57.08417° E039.28692°
Превышение над уровнем моря
108
Основная полоса
17/35
Курс магнитный
166,9/346,9
Длина основной ВПП
405
Ширина основной ВПП
18
Покрытие основной ВПП
Твёрдое (асфальт)
Освещение ВПП
Нет
Тип: 
Аэродром
Класс аэродрома: 
Принадлежность: 
ГА
Статус: 
Недействующий
Сайт: 
E-mail аэродрома: 
Страна: 
Россия
Регион: 
Ярославская область
Город: 
Дополнительная информация: 
Бывшая площадка АХР. Для посадки легких самолетов не пригодна.

Найти трансфер

С помощью этой формы Вы можете найти трансфер из аэропорта Деболовское в город, аэропорт или вокзал:

Карта места

Javascript is required to view this map.

Погода в аэропортах:

Авиационная погода в Киеве

Регион: 
Погода METAR: 
UKKK 281000Z 12003MPS 090V150 5000 1000E R08/P2000U BR BKN001 05/05 Q1003 TEMPO 0300 FG
Время наблюдения
2021-11-28T10:00:00Z
Температура C
5.0
Точка росы
5.0
Направление ветра
120
Скорость ветра (узлы)
6
Метео видимость
3.11
Явления погоды
BR
Условия полета
LIFR
Аэропорт подробнее: 

Авиационная погода в Самаре

Регион: 
Погода METAR: 
UWWW 281000Z 18007MPS 9999 -FZRA BKN013 M01/M04 Q1016 R15/350139 NOSIG RMK QFE750/1001
Время наблюдения
2021-11-28T10:00:00Z
Температура C
-1.0
Точка росы
-4.0
Направление ветра
180
Скорость ветра (узлы)
14
Метео видимость
6.21
Явления погоды
-FZRA
Условия полета
MVFR
Аэропорт подробнее: 

Авиационная погода в Емельяново

Регион: 
Погода METAR: 
UNKL 281000Z 25007G13MPS 5000 -SHSN DRSN SCT043CB M05/M08 Q1025 R29/810245 NOSIG RMK QFE743
Время наблюдения
2021-11-28T10:00:00Z
Температура C
-5.0
Точка росы
-8.0
Направление ветра
250
Скорость ветра (узлы)
14
Метео видимость
3.11
Явления погоды
-SHSN DRSN
Условия полета
MVFR
Аэропорт подробнее: 

Авиационная погода в Киркенесе

Регион: 
Погода METAR: 
ENKR 281020Z 16005KT 150V220 9999 VCFG FEW002 M22/M25 Q1010 RMK WIND 731FT 22012KT
Время наблюдения
2021-11-28T10:20:00Z
Температура C
-22.0
Точка росы
-25.0
Направление ветра
160
Скорость ветра (узлы)
5
Метео видимость
6.21
Явления погоды
VCFG
Условия полета
VFR